FQNP

Nampula Airport

Nampula, Mozambique
METAR FQNP 241300Z 22008KT 9999 SCT020 FEW100 28/20 Q1017
Observed Flight Rules
May-24 @ 13:00 UTC (49 minutes ago) Visual Flight Rules
Wind Visibility Clouds
220° at 8 knots 10,000+ meters
  • Scattered at 2,000' AGL
  • Few at 10,000' AGL
Temperatures Readings
Current 28°C / 82°F
Dewpoint 20°C / 68°F
Humidity 62%
Altimeter 30.03" Hg
Pressure 1017 hPa
Elevation 441
METAR FQNP 241300Z 22008KT 9999 SCT020 FEW100 28/20 Q1017
Observed Flight Rules
May-24 @ 13:00 UTC
(49 minutes ago)
VFR
Wind Visibility
220° at 8 knots 10,000+ meters
Clouds
  • Scattered at 2,000' AGL
  • Few at 10,000' AGL
Temperature Dewpoint
28°C / 82°F 20°C / 68°F
Humidity Altimeter Pressure
62% 30.03" Hg 1017 hPa